Bei Facebook empfehlenBei Twitter postenGoogle plusPinterest

Das Wetter im Erzgebirge am 07.03.2015

Wetter und Klima am 07.03.2015 Holzhau im Erzgebirge (630m ü.NN)
Letzte gemessene Temperatur und Uhrzeit der Messung23:45:00 Uhr1.10 °C
Temperatur (Maximum / Höchstwert) und Uhrzeit der Messung15:45:00 Uhr10.20 °C
Temperatur (Minimum / Tiefstwert) und Uhrzeit der Messung08:00:00-1.90 °C
Errechneter Absolutwert der Temperaturschwankungen zwischen Tmin und Tmax des Tages12.10 K
Errechnete Tagesmitteltemperatur2.98958 °C
Gesamt - Niederschlag des Tages (in flüssiger Form)0.00 Liter / m²
Luftdruck (Maximum / Höchstwert) und Zeitpunkt der Messung01:30:00 Uhr1031.00 hPa
Luftdruck (Minimum / Tiefstwert) und Zeitpunkt der Messung23:45:00 Uhr1026.40 hPa
Errechneter Absolutwert der Luftdruckschwankungen des Tages4.60 hPa
Höchste gemessene Windgeschwindigkeit und Uhrzeit der Messung13:15:00 Uhr6.84 km/h
Errechnete Windhäufigkeit in Relation zu den Messwerten des Tages6.25000 %
Niedrigste Windkühle (Windchill) und Zeitpunkt der Messung08:00:00 Uhr-1.90 °C
Taupunkt (Maximum / Höchstwert) und Uhrzeit der Messung10:00:00 Uhr4.60 °C
Taupunkt (Minimum / Tiefstwert) und Uhrzeit der Messung06:30:00-3.10 °C
Anzahl der automatisch eingelesenen Messwerte 96

Detaillierte Wetter- und Klima- Messwerte für den 07.03.2015 in Holzhau im Erzgebirge (630m ü.NN)
ZeitTemperaturLuftdruckRel. LuftfeuchteWindWindrichtungWindchillTaupunktNiederschlag l/m²
23:45:001.10 °C1026.40 hPa86.00 %-1.00 °C 
23:30:001.30 °C1026.40 hPa86.00 %-0.80 °C 
23:15:001.00 °C1026.40 hPa87.00 %-0.90 °C 
23:00:000.60 °C1026.60 hPa86.00 %-1.50 °C 
22:45:000.70 °C1026.80 hPa85.00 %-1.50 °C 
22:30:001.20 °C1026.90 hPa85.00 %-1.00 °C 
22:15:001.50 °C1027.10 hPa85.00 %-0.70 °C 
22:00:001.10 °C1026.90 hPa86.00 %-1.00 °C 
21:45:000.80 °C1026.90 hPa85.00 %-1.40 °C 
21:30:000.80 °C1026.80 hPa84.00 %-1.60 °C 
21:15:001.20 °C1026.80 hPa83.00 %-1.40 °C 
21:00:001.60 °C1027.00 hPa84.00 %-0.80 °C 
20:45:001.50 °C1027.10 hPa84.00 %-0.90 °C 
20:30:001.40 °C1027.20 hPa84.00 %-1.00 °C 
20:15:001.40 °C1027.30 hPa84.00 %2.88 km/hOSO1.40 °C-1.00 °C 
20:00:001.50 °C1027.40 hPa85.00 %-0.70 °C 
19:45:000.90 °C1027.40 hPa86.00 %-1.20 °C 
19:30:000.50 °C1027.50 hPa85.00 %-1.70 °C 
19:15:000.80 °C1027.70 hPa85.00 %-1.40 °C 
19:00:000.70 °C1027.60 hPa84.00 %-1.70 °C 
18:45:000.90 °C1027.80 hPa83.00 %-1.70 °C 
18:30:001.40 °C1027.80 hPa81.00 %-1.50 °C 
18:15:002.00 °C1027.70 hPa79.00 %-1.20 °C 
18:00:002.70 °C1027.70 hPa77.00 %-0.90 °C 
17:45:003.20 °C1027.60 hPa76.00 %-0.60 °C 
17:30:003.90 °C1027.60 hPa74.00 %-0.30 °C 
17:15:004.90 °C1027.30 hPa70.00 %-0.10 °C 
17:00:005.90 °C1027.50 hPa66.00 %0.00 °C 
16:45:007.10 °C1027.50 hPa63.00 %0.50 °C 
16:30:008.20 °C1027.60 hPa59.00 %0.70 °C 
16:15:009.40 °C1027.90 hPa56.00 %1.10 °C 
16:00:0010.10 °C1027.80 hPa55.00 %1.50 °C 
15:45:0010.20 °C1027.70 hPa56.00 %1.80 °C 
15:30:0010.20 °C1027.80 hPa56.00 %1.80 °C 
15:15:009.90 °C1027.90 hPa56.00 %0.72 km/hSSW9.90 °C1.50 °C 
15:00:0010.00 °C1028.00 hPa57.00 %1.90 °C 
14:45:009.60 °C1028.40 hPa57.00 %5.04 km/hSSO9.30 °C1.50 °C 
14:30:009.70 °C1028.40 hPa57.00 %1.60 °C 
14:15:009.50 °C1028.50 hPa57.00 %1.40 °C 
14:00:009.30 °C1028.50 hPa58.00 %1.50 °C 
13:45:009.30 °C1028.40 hPa59.00 %1.70 °C 
13:30:009.30 °C1028.70 hPa60.00 %1.90 °C 
13:15:008.90 °C1028.90 hPa63.00 %6.84 km/hSW8.00 °C2.30 °C 
13:00:008.40 °C1029.20 hPa63.00 %1.80 °C 
12:45:008.10 °C1029.30 hPa65.00 %3.60 km/hSW8.10 °C1.90 °C 
12:30:007.60 °C1029.60 hPa66.00 %1.70 °C 
12:15:007.90 °C1029.40 hPa66.00 %2.00 °C 
12:00:007.60 °C1029.60 hPa67.00 %1.90 °C 
11:45:007.60 °C1029.90 hPa66.00 %1.70 °C 
11:30:008.10 °C1030.00 hPa67.00 %2.40 °C 
11:15:008.40 °C1030.20 hPa68.00 %2.16 km/hSW8.40 °C2.80 °C 
11:00:008.20 °C1029.90 hPa70.00 %3.10 °C 
10:45:007.90 °C1029.90 hPa72.00 %3.20 °C 
10:30:007.60 °C1030.10 hPa78.00 %4.00 °C 
10:15:006.50 °C1030.20 hPa84.00 %4.00 °C 
10:00:006.10 °C1030.10 hPa90.00 %4.60 °C 
09:45:005.00 °C1029.90 hPa92.00 %3.80 °C 
09:30:003.80 °C1029.70 hPa93.00 %2.80 °C 
09:15:002.90 °C1029.80 hPa94.00 %2.00 °C 
09:00:001.80 °C1029.40 hPa94.00 %0.90 °C 
08:45:000.90 °C1029.20 hPa93.00 %-0.10 °C 
08:30:000.30 °C1029.30 hPa93.00 %-0.70 °C 
08:15:00-0.90 °C1029.50 hPa93.00 %-2.00 °C 
08:00:00-1.90 °C1029.30 hPa93.00 %-3.00 °C 
07:45:00-1.90 °C1029.30 hPa93.00 %-3.00 °C 
07:30:00-1.80 °C1029.30 hPa93.00 %-2.90 °C 
07:15:00-1.70 °C1029.00 hPa93.00 %-2.80 °C 
07:00:00-1.80 °C1029.30 hPa93.00 %-2.90 °C 
06:45:00-1.80 °C1029.50 hPa93.00 %-2.90 °C 
06:30:00-1.80 °C1029.80 hPa92.00 %-3.10 °C 
06:15:00-1.60 °C1029.90 hPa92.00 %-2.90 °C 
06:00:00-1.20 °C1030.00 hPa92.00 %-2.50 °C 
05:45:00-0.90 °C1029.90 hPa92.00 %-2.20 °C 
05:30:00-0.50 °C1030.10 hPa92.00 %-1.80 °C 
05:15:00-0.40 °C1030.00 hPa92.00 %-1.70 °C 
05:00:00-0.10 °C1030.00 hPa92.00 %-1.40 °C 
04:45:00-0.10 °C1030.20 hPa92.00 %-1.40 °C 
04:30:000.00 °C1030.30 hPa92.00 %-1.30 °C 
04:15:000.10 °C1030.30 hPa92.00 %-1.00 °C 
04:00:000.20 °C1030.50 hPa92.00 %-0.90 °C 
03:45:000.10 °C1030.50 hPa92.00 %-1.00 °C 
03:30:000.10 °C1030.40 hPa92.00 %-1.00 °C 
03:15:000.10 °C1030.50 hPa92.00 %-1.00 °C 
03:00:000.10 °C1030.60 hPa92.00 %-1.00 °C 
02:45:000.10 °C1030.70 hPa92.00 %-1.00 °C 
02:30:000.10 °C1030.80 hPa92.00 %-1.00 °C 
02:15:000.20 °C1030.70 hPa92.00 %-0.90 °C 
02:00:000.20 °C1030.60 hPa92.00 %-0.90 °C 
01:45:000.20 °C1030.50 hPa92.00 %-0.90 °C 
01:30:000.20 °C1031.00 hPa92.00 %-0.90 °C 
01:15:000.20 °C1030.70 hPa92.00 %-0.90 °C 
01:00:000.20 °C1030.80 hPa92.00 %-0.90 °C 
00:45:000.30 °C1030.60 hPa92.00 %-0.80 °C 
00:30:000.30 °C1030.40 hPa92.00 %-0.80 °C 
00:15:000.40 °C1030.40 hPa92.00 %-0.70 °C 
00:00:000.40 °C1030.20 hPa92.00 %-0.70 °C 

Permanenter Link zu dieser Seite: Wetter im Erzgebirge am 07.03.2015
Performance-Info: Die Erstellung der Seite / Statistik(en) / Tabelle(n) erforderte 5 Datenbankserver-Abfrage(n) und dauerte 102 Millisekunden. (Dieser Messwert ist von der Gesamt-Auslastung des Servers abhängig.)
Erzgebirge - Wetter | Erzgebirge - Wetter (Mobilgeräte) | Komplette Klimadatenbank